Terminal Aerodrome Forecast
Issued by NWS Newport/Morehead City, NC

Home | Current Version | Previous Version | Text Only | Print | Product List | Glossary Off
Versions: 1 2 3 4 5 6 7 8 9 10 11 12 13 14 15 16 17 18

423
FTUS42 KMHX 260944 AAA
TAFEWN
TAF AMD
KEWN 260944Z 2610/2706 VRB03KT P6SM BKN007
     FM261300 VRB04KT P6SM SCT007 BKN015
     FM261500 28008KT P6SM SCT040=

USA.gov is the U.S. government's official web portal to all federal, state and local government web resources and services.